createdAt,value
2022-11-04T00:00:16.332Z,6.00
2022-11-04T00:02:44.289Z,5.35
2022-11-04T00:05:12.319Z,8.25
2022-11-04T00:07:58.796Z,6.82
2022-11-04T00:10:46.559Z,8.00
2022-11-04T00:13:14.401Z,10.27
2022-11-04T00:16:00.715Z,7.00
2022-11-04T00:18:28.562Z,11.10
2022-11-04T00:21:15.958Z,9.40
2022-11-04T00:24:02.389Z,9.00
2022-11-04T00:26:49.098Z,9.30
2022-11-04T00:29:16.965Z,12.35
2022-11-04T00:32:03.405Z,8.07
2022-11-04T00:34:31.159Z,7.82
2022-11-04T00:37:00.449Z,8.95
2022-11-04T00:39:28.610Z,8.77
2022-11-04T00:41:56.413Z,7.65
2022-11-04T00:44:24.241Z,7.90
2022-11-04T00:46:52.118Z,9.50
2022-11-04T00:49:20.080Z,8.82
2022-11-04T00:51:47.863Z,7.20
2022-11-04T00:54:15.703Z,9.02
2022-11-04T00:56:43.496Z,10.98
2022-11-04T00:59:14.436Z,10.55
2022-11-04T01:01:43.064Z,12.30
2022-11-04T01:04:11.233Z,13.73
2022-11-04T01:06:39.650Z,9.38
2022-11-04T01:09:09.010Z,9.23
2022-11-04T01:11:37.137Z,10.70
2022-11-04T01:14:05.399Z,8.30
2022-11-04T01:16:33.575Z,13.77
2022-11-04T01:19:01.521Z,11.68
2022-11-04T01:21:29.399Z,9.98
2022-11-04T01:23:57.585Z,12.50
2022-11-04T01:26:27.929Z,12.85
2022-11-04T01:28:57.234Z,6.97
2022-11-04T01:31:30.192Z,9.00
2022-11-04T01:33:59.081Z,6.75
2022-11-04T01:36:28.292Z,8.68
2022-11-04T01:38:57.355Z,7.75
2022-11-04T01:41:31.915Z,6.82
2022-11-04T01:44:23.856Z,6.30
2022-11-04T01:46:54.050Z,5.95
2022-11-04T01:49:42.418Z,4.85
2022-11-04T01:52:22.680Z,5.63
2022-11-04T01:54:52.448Z,4.57
2022-11-04T01:57:26.404Z,6.38
2022-11-04T01:59:55.347Z,5.75
2022-11-04T02:02:24.834Z,5.40
2022-11-04T02:04:52.748Z,5.90
2022-11-04T02:07:21.264Z,3.33
2022-11-04T02:09:49.325Z,3.10
2022-11-04T02:12:46.515Z,4.47
2022-11-04T02:15:14.339Z,2.58
2022-11-04T02:17:51.064Z,3.08
2022-11-04T02:20:23.489Z,5.60
2022-11-04T02:23:20.112Z,2.80
2022-11-04T02:26:29.818Z,3.30
2022-11-04T02:29:19.625Z,4.63
2022-11-04T02:32:09.201Z,3.60
2022-11-04T02:34:42.035Z,3.85
2022-11-04T02:37:20.862Z,3.22
2022-11-04T02:40:17.733Z,3.92
2022-11-04T02:42:54.368Z,4.45
2022-11-04T02:45:37.718Z,4.07
2022-11-04T02:48:30.038Z,4.40
2022-11-04T02:51:06.558Z,5.43
2022-11-04T02:53:46.142Z,6.07
2022-11-04T02:56:16.516Z,5.45
2022-11-04T02:58:51.987Z,5.72
2022-11-04T03:01:21.331Z,4.53
2022-11-04T03:03:54.645Z,5.30
2022-11-04T03:06:24.657Z,5.70
2022-11-04T03:08:53.831Z,6.22
2022-11-04T03:11:25.085Z,7.78
2022-11-04T03:14:04.274Z,5.40
2022-11-04T03:16:40.629Z,4.78
2022-11-04T03:19:16.188Z,6.03
2022-11-04T03:21:58.288Z,6.38
2022-11-04T03:24:26.886Z,8.50
2022-11-04T03:27:04.496Z,7.65
2022-11-04T03:29:37.520Z,5.47
2022-11-04T03:32:18.929Z,5.95
2022-11-04T03:34:47.434Z,8.77
2022-11-04T03:37:15.297Z,6.72
2022-11-04T03:39:43.261Z,14.25
2022-11-04T03:42:22.679Z,6.35
2022-11-04T03:44:55.386Z,7.72
2022-11-04T03:47:26.834Z,5.13
2022-11-04T03:50:04.281Z,5.43
2022-11-04T03:52:32.658Z,6.55
2022-11-04T03:55:00.446Z,9.05
2022-11-04T03:58:00.711Z,6.55
2022-11-04T04:00:35.810Z,5.18
2022-11-04T04:03:16.022Z,6.60
2022-11-04T04:06:02.047Z,5.85
2022-11-04T04:08:39.514Z,6.22
2022-11-04T04:11:17.473Z,7.00
2022-11-04T04:14:06.532Z,6.22
2022-11-04T04:16:43.173Z,10.93
2022-11-04T04:19:14.156Z,7.00
2022-11-04T04:22:12.132Z,7.82
2022-11-04T04:25:03.006Z,9.73
2022-11-04T04:27:32.126Z,9.88
2022-11-04T04:30:08.439Z,10.07
2022-11-04T04:32:51.333Z,11.45
2022-11-04T04:35:44.360Z,11.02
2022-11-04T04:38:44.682Z,11.90
2022-11-04T04:41:33.455Z,13.75
2022-11-04T04:44:20.032Z,15.80
2022-11-04T04:46:52.000Z,15.05
2022-11-04T04:49:19.728Z,16.25
2022-11-04T04:51:48.483Z,18.63
2022-11-04T04:54:16.332Z,25.77
2022-11-04T04:56:44.158Z,21.70
2022-11-04T04:59:12.023Z,24.50
2022-11-04T05:01:39.943Z,23.23
2022-11-04T05:04:09.881Z,21.52
2022-11-04T05:06:40.550Z,22.38
2022-11-04T05:09:08.429Z,26.67
2022-11-04T05:11:36.402Z,23.15
2022-11-04T05:14:04.085Z,24.92
2022-11-04T05:16:35.395Z,26.60
2022-11-04T05:19:05.840Z,30.87
2022-11-04T05:21:33.643Z,29.13
2022-11-04T05:24:01.442Z,31.27
2022-11-04T05:26:29.270Z,33.45
2022-11-04T05:28:56.982Z,32.53
2022-11-04T05:31:24.775Z,31.60
2022-11-04T05:33:53.204Z,35.90
2022-11-04T05:36:20.956Z,37.50
2022-11-04T05:38:55.586Z,34.45
2022-11-04T05:41:26.604Z,38.70
2022-11-04T05:43:59.610Z,36.25
2022-11-04T05:46:27.863Z,36.75
2022-11-04T05:48:56.140Z,34.88
2022-11-04T05:51:27.064Z,34.15
2022-11-04T05:53:54.911Z,35.03
2022-11-04T05:56:22.749Z,37.63
2022-11-04T05:58:50.532Z,37.00
2022-11-04T06:01:36.379Z,35.85
2022-11-04T06:04:05.723Z,38.72
2022-11-04T06:06:36.031Z,34.50
2022-11-04T06:09:04.304Z,37.53
2022-11-04T06:11:33.456Z,39.42
2022-11-04T06:14:01.556Z,39.75
2022-11-04T06:16:29.405Z,35.08
2022-11-04T06:19:01.518Z,33.00
2022-11-04T06:21:33.893Z,34.08
2022-11-04T06:24:02.352Z,33.63
2022-11-04T06:26:31.283Z,30.85
2022-11-04T06:28:59.130Z,33.70
2022-11-04T06:31:27.255Z,31.05
2022-11-04T06:33:55.114Z,29.67
2022-11-04T06:36:22.959Z,29.63
2022-11-04T06:38:51.052Z,22.60
2022-11-04T06:41:19.360Z,30.60
2022-11-04T06:43:47.372Z,21.92
2022-11-04T06:46:47.353Z,27.10
2022-11-04T06:49:18.189Z,20.30
2022-11-04T06:51:46.368Z,23.75
2022-11-04T06:54:15.027Z,23.40
2022-11-04T06:56:43.420Z,22.45
2022-11-04T06:59:17.782Z,29.77
2022-11-04T07:01:46.280Z,25.35
2022-11-04T07:04:14.259Z,25.90
2022-11-04T07:06:50.844Z,24.73
2022-11-04T07:09:25.001Z,22.77
2022-11-04T07:11:52.740Z,22.70
2022-11-04T07:14:20.465Z,28.00
2022-11-04T07:16:51.384Z,29.80
2022-11-04T07:19:19.251Z,28.55
2022-11-04T07:21:47.555Z,25.30
2022-11-04T07:24:15.683Z,24.35
2022-11-04T07:26:44.014Z,18.17
2022-11-04T07:29:11.870Z,22.83
2022-11-04T07:31:39.700Z,20.70
2022-11-04T07:34:07.560Z,19.25
2022-11-04T07:36:35.342Z,18.25
2022-11-04T07:39:03.493Z,15.85
2022-11-04T07:41:31.275Z,16.35
2022-11-04T07:44:00.871Z,16.38
2022-11-04T07:46:28.577Z,13.23
2022-11-04T07:48:58.752Z,11.82
2022-11-04T07:51:27.412Z,16.20
2022-11-04T07:53:56.674Z,17.02
2022-11-04T07:56:24.685Z,11.75
2022-11-04T07:58:53.086Z,15.20
2022-11-04T08:01:23.821Z,14.05
2022-11-04T08:03:52.300Z,14.95
2022-11-04T08:06:21.571Z,15.32
2022-11-04T08:08:49.512Z,13.88
2022-11-04T08:11:25.147Z,13.80
2022-11-04T08:13:52.946Z,13.57
2022-11-04T08:16:22.481Z,13.05
2022-11-04T08:18:52.609Z,11.40
2022-11-04T08:21:22.049Z,13.65
2022-11-04T08:23:51.526Z,16.83
2022-11-04T08:26:20.808Z,13.18
2022-11-04T08:28:49.176Z,15.23
2022-11-04T08:31:19.871Z,15.90
2022-11-04T08:33:48.307Z,15.45
2022-11-04T08:36:19.152Z,13.80
2022-11-04T08:38:47.525Z,15.73
2022-11-04T08:41:17.763Z,13.48
2022-11-04T08:43:46.318Z,12.35
2022-11-04T08:46:14.633Z,14.32
2022-11-04T08:48:43.184Z,12.50
2022-11-04T08:51:20.777Z,12.95
2022-11-04T08:53:48.959Z,10.68
2022-11-04T08:56:37.738Z,14.02
2022-11-04T08:59:06.086Z,11.32
2022-11-04T09:01:36.407Z,15.02
2022-11-04T09:04:05.842Z,9.90
2022-11-04T09:06:37.026Z,14.10
2022-11-04T09:09:06.897Z,12.50
2022-11-04T09:11:38.200Z,15.27
2022-11-04T09:14:07.254Z,14.65
2022-11-04T09:16:36.822Z,19.65
2022-11-04T09:19:05.515Z,14.63
2022-11-04T09:21:33.467Z,14.60
2022-11-04T09:24:01.284Z,17.05
2022-11-04T09:26:29.148Z,19.40
2022-11-04T09:28:58.470Z,14.32
2022-11-04T09:31:28.630Z,16.52
2022-11-04T09:33:56.827Z,19.13
2022-11-04T09:36:24.782Z,18.10
2022-11-04T09:38:52.703Z,16.38
2022-11-04T09:41:45.930Z,17.75
2022-11-04T09:44:31.636Z,25.90
2022-11-04T09:47:02.629Z,25.55
2022-11-04T09:49:36.175Z,19.83
2022-11-04T09:52:14.440Z,20.20
2022-11-04T09:54:49.013Z,20.35
2022-11-04T09:57:19.264Z,19.52
2022-11-04T09:59:48.371Z,16.85
2022-11-04T10:02:41.072Z,21.45
2022-11-04T10:05:36.391Z,19.50
2022-11-04T10:08:04.228Z,20.15
2022-11-04T10:11:08.723Z,19.77
2022-11-04T10:14:14.811Z,19.45
2022-11-04T10:16:53.015Z,17.38
2022-11-04T10:19:51.931Z,18.20
2022-11-04T10:22:43.086Z,20.33
2022-11-04T10:25:22.956Z,20.08
2022-11-04T10:27:52.439Z,16.15
2022-11-04T10:30:23.120Z,20.63
2022-11-04T10:32:59.605Z,17.63
2022-11-04T10:35:50.575Z,18.45
2022-11-04T10:38:33.180Z,19.33
2022-11-04T10:41:06.926Z,22.58
2022-11-04T10:43:40.904Z,19.58
2022-11-04T10:46:34.246Z,16.52
2022-11-04T10:49:20.929Z,19.45
2022-11-04T10:51:48.915Z,19.63
2022-11-04T10:54:16.955Z,19.52
2022-11-04T10:56:51.968Z,16.40
2022-11-04T10:59:48.663Z,17.90
2022-11-04T11:02:16.850Z,18.58
2022-11-04T11:04:47.083Z,15.75
2022-11-04T11:07:22.841Z,19.63
2022-11-04T11:10:00.263Z,16.50
2022-11-04T11:12:50.742Z,16.30
2022-11-04T11:15:30.875Z,26.20
2022-11-04T11:18:21.298Z,18.30
2022-11-04T11:20:51.919Z,16.63
2022-11-04T11:23:46.694Z,16.40
2022-11-04T11:26:20.934Z,16.25
2022-11-04T11:28:59.217Z,16.88
2022-11-04T11:31:40.169Z,17.30
2022-11-04T11:34:23.117Z,17.08
2022-11-04T11:36:51.388Z,16.88
2022-11-04T11:39:28.032Z,15.73
2022-11-04T11:42:16.059Z,18.13
2022-11-04T11:44:49.004Z,18.08
2022-11-04T11:47:30.037Z,20.17
2022-11-04T11:50:17.914Z,17.38
2022-11-04T11:52:48.013Z,18.92
2022-11-04T11:55:36.581Z,18.17
2022-11-04T12:01:34.802Z,20.33
2022-11-04T12:10:18.652Z,17.67
2022-11-04T12:13:05.415Z,19.30
2022-11-04T12:15:41.083Z,19.50
2022-11-04T12:18:30.173Z,15.85
2022-11-04T12:21:07.773Z,22.35
2022-11-04T12:23:56.190Z,16.30
2022-11-04T12:26:33.251Z,15.10
2022-11-04T12:29:37.315Z,14.57
2022-11-04T12:32:14.614Z,17.02
2022-11-04T12:34:57.290Z,19.45
2022-11-04T12:37:46.829Z,18.35
2022-11-04T12:40:42.259Z,18.67
2022-11-04T12:43:39.291Z,20.02
2022-11-04T12:46:16.177Z,15.23
2022-11-04T12:49:07.077Z,20.90
2022-11-04T12:51:52.489Z,15.85
2022-11-04T12:57:15.733Z,16.90
2022-11-04T13:00:15.360Z,14.55
2022-11-04T13:02:49.027Z,14.63
2022-11-04T13:05:38.201Z,13.27
2022-11-04T13:08:38.805Z,15.00
2022-11-04T13:11:23.390Z,12.75
2022-11-04T13:14:09.701Z,11.48
2022-11-04T13:16:44.650Z,11.75
2022-11-04T13:19:32.695Z,13.82
2022-11-04T13:22:08.827Z,11.25
2022-11-04T13:24:44.258Z,13.77
2022-11-04T13:27:27.691Z,13.35
2022-11-04T13:30:34.326Z,12.50
2022-11-04T13:33:20.959Z,11.40
2022-11-04T13:36:07.600Z,12.07
2022-11-04T13:38:41.510Z,11.48
2022-11-04T13:41:38.909Z,15.43
2022-11-04T13:44:21.996Z,10.18
2022-11-04T13:46:53.724Z,11.93
2022-11-04T13:49:30.792Z,12.35
2022-11-04T13:52:08.393Z,12.35
2022-11-04T13:54:44.847Z,9.15
2022-11-04T13:57:19.095Z,11.00
2022-11-04T14:00:06.823Z,12.73
2022-11-04T14:02:46.192Z,12.63
2022-11-04T14:05:33.944Z,14.88
2022-11-04T14:08:01.868Z,12.15
2022-11-04T14:10:49.790Z,12.82
2022-11-04T14:13:29.722Z,10.00
2022-11-04T14:16:26.711Z,11.93
2022-11-04T14:19:00.938Z,12.15
2022-11-04T14:21:32.329Z,11.88
2022-11-04T14:24:00.573Z,11.15
2022-11-04T14:26:48.989Z,11.18
2022-11-04T14:29:22.916Z,10.45
2022-11-04T14:31:53.309Z,8.82
2022-11-04T14:34:27.160Z,9.98
2022-11-04T14:37:00.533Z,9.77
2022-11-04T14:39:41.889Z,10.77
2022-11-04T14:42:14.358Z,11.75
2022-11-04T14:44:49.820Z,10.55
2022-11-04T14:47:30.897Z,10.45
2022-11-04T14:50:01.137Z,10.23
2022-11-04T14:52:47.184Z,10.98
2022-11-04T14:55:26.317Z,7.50
2022-11-04T14:57:56.723Z,7.82
2022-11-04T15:00:37.281Z,8.48
2022-11-04T15:03:52.015Z,7.28
2022-11-04T15:06:07.591Z,7.93
2022-11-04T15:08:36.786Z,7.28
2022-11-04T15:11:17.514Z,10.57
2022-11-04T15:13:51.636Z,6.78
2022-11-04T15:16:26.658Z,7.55
2022-11-04T15:18:57.513Z,5.57
2022-11-04T15:21:26.024Z,6.53
2022-11-04T15:23:55.414Z,7.18
2022-11-04T15:26:30.310Z,6.40
2022-11-04T15:29:01.466Z,6.25
2022-11-04T15:31:32.463Z,4.00
2022-11-04T15:34:03.697Z,4.78
2022-11-04T15:36:39.976Z,4.50
2022-11-04T15:39:23.582Z,6.35
2022-11-04T15:42:21.780Z,8.73
2022-11-04T15:44:56.060Z,5.05
2022-11-04T15:47:28.959Z,6.43
2022-11-04T15:50:15.507Z,5.55
2022-11-04T15:52:52.082Z,8.45
2022-11-04T15:55:27.686Z,4.65
2022-11-04T15:57:56.495Z,4.53
2022-11-04T16:00:28.410Z,5.72
2022-11-04T16:02:58.594Z,6.85
2022-11-04T16:05:41.679Z,6.63
2022-11-04T16:08:27.644Z,6.22
2022-11-04T16:11:15.154Z,7.05
2022-11-04T16:13:43.908Z,9.75
2022-11-04T16:16:25.502Z,9.65
2022-11-04T16:18:56.184Z,6.60
2022-11-04T16:21:28.830Z,6.40
2022-11-04T16:24:08.710Z,6.13
2022-11-04T16:26:44.428Z,8.80
2022-11-04T16:29:20.739Z,4.97
2022-11-04T16:32:14.631Z,9.85
2022-11-04T16:34:46.238Z,8.40
2022-11-04T16:37:14.141Z,5.63
2022-11-04T16:39:45.106Z,6.47
2022-11-04T16:42:14.351Z,8.63
2022-11-04T16:44:48.491Z,6.93
2022-11-04T16:47:18.593Z,6.80
2022-11-04T16:49:47.344Z,5.80
2022-11-04T16:52:22.909Z,10.98
2022-11-04T16:54:50.741Z,8.10
2022-11-04T16:57:18.966Z,8.27
2022-11-04T16:59:47.220Z,10.40
2022-11-04T17:02:28.178Z,9.43
2022-11-04T17:04:56.597Z,10.30
2022-11-04T17:07:47.284Z,8.32
2022-11-04T17:10:25.337Z,5.60
2022-11-04T17:12:53.499Z,8.60
2022-11-04T17:15:21.525Z,8.48
2022-11-04T17:17:49.403Z,8.18
2022-11-04T17:20:18.641Z,9.80
2022-11-04T17:22:47.370Z,12.10
2022-11-04T17:25:18.724Z,6.13
2022-11-04T17:27:46.646Z,11.02
2022-11-04T17:30:16.348Z,7.60
2022-11-04T17:32:45.313Z,7.88
2022-11-04T17:35:17.697Z,12.15
2022-11-04T17:37:46.826Z,6.82
2022-11-04T17:40:18.385Z,9.57
2022-11-04T17:43:10.402Z,9.38
2022-11-04T17:45:41.927Z,9.63
2022-11-04T17:48:11.206Z,7.82
2022-11-04T17:50:42.209Z,6.93
2022-11-04T17:53:10.888Z,11.38
2022-11-04T17:55:40.564Z,8.35
2022-11-04T17:58:08.833Z,8.68
2022-11-04T18:00:36.754Z,7.68
2022-11-04T18:03:06.660Z,10.57
2022-11-04T18:05:35.300Z,10.95
2022-11-04T18:08:03.340Z,13.10
2022-11-04T18:10:31.235Z,17.98
2022-11-04T18:12:59.151Z,13.77
2022-11-04T18:15:27.315Z,12.05
2022-11-04T18:17:55.230Z,9.32
2022-11-04T18:20:23.174Z,11.38
2022-11-04T18:22:50.991Z,11.73
2022-11-04T18:25:19.328Z,9.13
2022-11-04T18:27:50.284Z,9.73
2022-11-04T18:30:18.839Z,9.25
2022-11-04T18:32:46.874Z,12.02
2022-11-04T18:35:14.903Z,12.02
2022-11-04T18:37:47.056Z,12.82
2022-11-04T18:40:16.420Z,12.77
2022-11-04T18:42:44.689Z,13.13
2022-11-04T18:45:12.683Z,11.10
2022-11-04T18:47:40.566Z,14.05
2022-11-04T18:50:08.889Z,10.52
2022-11-04T18:52:37.185Z,12.02
2022-11-04T18:55:05.649Z,11.55
2022-11-04T18:57:33.746Z,10.27
2022-11-04T19:00:02.041Z,11.82
2022-11-04T19:02:32.117Z,9.95
2022-11-04T19:05:00.272Z,15.57
2022-11-04T19:07:28.346Z,17.65
2022-11-04T19:09:56.324Z,19.83
2022-11-04T19:12:43.883Z,17.38
2022-11-04T19:15:12.235Z,15.43
2022-11-04T19:17:40.305Z,12.13
2022-11-04T19:20:12.545Z,14.00
2022-11-04T19:22:41.284Z,15.65
2022-11-04T19:25:10.235Z,14.60
2022-11-04T19:27:41.735Z,14.82
2022-11-04T19:30:10.913Z,15.63
2022-11-04T19:32:44.727Z,14.27
2022-11-04T19:35:12.929Z,11.25
2022-11-04T19:37:46.356Z,14.80
2022-11-04T19:40:14.845Z,14.07
2022-11-04T19:43:01.364Z,14.18
2022-11-04T19:45:29.428Z,14.40
2022-11-04T19:48:01.168Z,16.15
2022-11-04T19:50:29.719Z,13.43
2022-11-04T19:53:00.922Z,11.40
2022-11-04T19:55:30.284Z,14.00
2022-11-04T19:58:05.091Z,14.98
2022-11-04T20:00:34.143Z,11.63
2022-11-04T20:03:02.326Z,12.55
2022-11-04T20:05:31.281Z,12.27
2022-11-04T20:08:06.060Z,12.32
2022-11-04T20:10:44.121Z,12.85
2022-11-04T20:13:36.497Z,15.68
2022-11-04T20:16:17.088Z,12.80
2022-11-04T20:18:47.170Z,11.05
2022-11-04T20:21:26.404Z,13.13
2022-11-04T20:24:05.325Z,17.23
2022-11-04T20:26:36.404Z,12.15
2022-11-04T20:29:05.851Z,15.00
2022-11-04T20:31:36.998Z,19.55
2022-11-04T20:34:08.374Z,21.27
2022-11-04T20:36:37.694Z,22.48
2022-11-04T20:39:09.000Z,18.15
2022-11-04T20:41:36.943Z,19.90
2022-11-04T20:44:05.195Z,17.80
2022-11-04T20:46:34.970Z,15.18
2022-11-04T20:49:03.972Z,17.55
2022-11-04T20:51:34.494Z,17.63
2022-11-04T20:54:05.912Z,14.90
2022-11-04T20:56:38.990Z,11.43
2022-11-04T20:59:09.718Z,17.42
2022-11-04T21:01:41.028Z,14.77
2022-11-04T21:04:23.588Z,14.02
2022-11-04T21:06:52.480Z,14.88
2022-11-04T21:09:22.358Z,11.43
2022-11-04T21:11:51.429Z,17.67
2022-11-04T21:14:20.252Z,20.55
2022-11-04T21:16:51.068Z,11.55
2022-11-04T21:19:21.861Z,15.95
2022-11-04T21:21:51.457Z,14.27
2022-11-04T21:24:19.591Z,12.73
2022-11-04T21:26:47.532Z,12.55
2022-11-04T21:29:19.388Z,13.43
2022-11-04T21:31:48.915Z,17.50
2022-11-04T21:34:17.298Z,16.35
2022-11-04T21:36:45.620Z,16.77
2022-11-04T21:39:13.492Z,21.30
2022-11-04T21:41:41.365Z,12.90
2022-11-04T21:44:12.516Z,14.50
2022-11-04T21:46:40.415Z,10.73
2022-11-04T21:49:09.349Z,13.43
2022-11-04T21:51:37.368Z,16.23
2022-11-04T21:54:07.204Z,15.85
2022-11-04T21:56:35.898Z,14.90
2022-11-04T21:59:04.418Z,12.82
2022-11-04T22:01:33.233Z,14.95
2022-11-04T22:04:02.493Z,11.25
2022-11-04T22:06:34.694Z,16.38
2022-11-04T22:09:06.244Z,18.65
2022-11-04T22:11:37.340Z,14.93
2022-11-04T22:14:08.288Z,15.63
2022-11-04T22:16:39.029Z,13.27
2022-11-04T22:19:10.162Z,12.60
2022-11-04T22:21:42.980Z,16.63
2022-11-04T22:24:18.747Z,13.95
2022-11-04T22:26:47.604Z,13.23
2022-11-04T22:29:15.468Z,15.77
2022-11-04T22:31:44.654Z,14.90
2022-11-04T22:34:12.505Z,13.23
2022-11-04T22:36:40.604Z,18.05
2022-11-04T22:39:15.240Z,13.65
2022-11-04T22:41:46.205Z,14.63
2022-11-04T22:44:14.850Z,14.20
2022-11-04T22:46:42.895Z,14.25
2022-11-04T22:49:10.704Z,12.65
2022-11-04T22:51:38.668Z,12.70
2022-11-04T22:54:08.537Z,14.23
2022-11-04T22:56:37.308Z,14.90
2022-11-04T22:59:06.246Z,16.52
2022-11-04T23:01:34.582Z,13.25
2022-11-04T23:04:02.710Z,10.70
2022-11-04T23:06:31.316Z,15.68
2022-11-04T23:09:00.732Z,13.73
2022-11-04T23:11:48.810Z,13.45
2022-11-04T23:14:54.365Z,11.18
2022-11-04T23:17:42.069Z,10.85
2022-11-04T23:20:16.182Z,9.32
2022-11-04T23:23:02.808Z,10.20
2022-11-04T23:25:30.721Z,10.43
2022-11-04T23:28:17.354Z,14.60
2022-11-04T23:30:50.414Z,10.52
2022-11-04T23:33:18.212Z,5.43
2022-11-04T23:36:07.875Z,7.32
2022-11-04T23:38:39.497Z,5.43
2022-11-04T23:41:43.845Z,3.85
2022-11-04T23:44:32.074Z,1.83
2022-11-04T23:47:19.018Z,1.65
2022-11-04T23:50:05.537Z,6.63
2022-11-04T23:53:11.904Z,4.20
2022-11-04T23:55:58.330Z,2.05
2022-11-04T23:58:44.704Z,1.25
